Hammondsville, Vermont
Current Conditions -  °F | °C
As of 9:54 AM on Saturday 01 Nov 2014 (Local Time) from KVSF Reporting Station
Overcast Overcast  
Wind Chill:   Ceiling: 3300
Heat Index:   Visibility: 10mi
Dew Point: -1°   Wind: 0mph
Humidity: 65%   Direction: NA
Pressure: 29.96"   Gusts: NA
Location:  43.4984°N, 72.5943°W
Report Text: KVSF 011354Z AUTO 00000KT 10SM BKN033 OVC042 05/M01 A2996 RMK AO2 SLP150 T00501011
Loading
Personal Weather Stations






























Interactive Weather Map
Tropical Storm Tracking
New forecast layout! Learn more

10-Day Weather Forecast

Advertisements
Track Severe Weather on mobile